createdAt,value
2022-09-14T00:01:26.873Z,18.28
2022-09-14T00:04:08.465Z,18.35
2022-09-14T00:06:35.334Z,18.44
2022-09-14T00:09:03.648Z,18.45
2022-09-14T00:11:31.832Z,18.46
2022-09-14T00:13:59.836Z,18.34
2022-09-14T00:16:29.336Z,18.35
2022-09-14T00:19:00.562Z,18.39
2022-09-14T00:21:29.157Z,18.51
2022-09-14T00:23:55.874Z,18.30
2022-09-14T00:26:23.514Z,18.14
2022-09-14T00:28:52.501Z,18.05
2022-09-14T00:31:20.704Z,18.11
2022-09-14T00:33:49.241Z,18.13
2022-09-14T00:36:27.983Z,18.12
2022-09-14T00:39:00.549Z,18.06
2022-09-14T00:41:32.936Z,18.20
2022-09-14T00:44:02.616Z,18.18
2022-09-14T00:46:44.757Z,18.25
2022-09-14T00:49:24.104Z,18.25
2022-09-14T00:51:59.759Z,18.27
2022-09-14T00:54:27.048Z,18.19
2022-09-14T00:56:54.740Z,18.16
2022-09-14T00:59:28.919Z,18.20
2022-09-14T01:01:55.802Z,18.11
2022-09-14T01:04:23.495Z,18.22
2022-09-14T01:07:06.557Z,18.22
2022-09-14T01:09:39.233Z,18.30
2022-09-14T01:12:26.639Z,18.19
2022-09-14T01:15:31.968Z,18.11
2022-09-14T01:17:58.480Z,18.14
2022-09-14T01:20:33.982Z,18.14
2022-09-14T01:23:18.616Z,18.16
2022-09-14T01:26:03.922Z,18.07
2022-09-14T01:28:57.538Z,18.10
2022-09-14T01:31:56.753Z,18.00
2022-09-14T01:34:34.173Z,17.88
2022-09-14T01:37:13.323Z,17.87
2022-09-14T01:39:56.790Z,17.83
2022-09-14T01:42:26.615Z,17.95
2022-09-14T01:44:57.450Z,18.00
2022-09-14T01:47:36.930Z,18.05
2022-09-14T01:50:10.501Z,18.08
2022-09-14T01:52:48.596Z,18.06
2022-09-14T01:55:31.689Z,18.06
2022-09-14T01:58:09.231Z,18.16
2022-09-14T02:00:41.428Z,18.19
2022-09-14T02:03:23.880Z,18.29
2022-09-14T02:06:02.573Z,18.30
2022-09-14T02:08:31.266Z,18.29
2022-09-14T02:10:58.991Z,18.24
2022-09-14T02:13:26.495Z,18.27
2022-09-14T02:15:53.363Z,18.26
2022-09-14T02:18:20.740Z,18.25
2022-09-14T02:20:53.400Z,18.34
2022-09-14T02:23:20.157Z,18.28
2022-09-14T02:25:47.429Z,18.41
2022-09-14T02:28:14.321Z,18.39
2022-09-14T02:31:12.768Z,18.49
2022-09-14T02:33:43.681Z,18.22
2022-09-14T02:36:51.702Z,18.41
2022-09-14T02:39:35.545Z,18.43
2022-09-14T02:42:17.181Z,18.30
2022-09-14T02:44:55.943Z,18.35
2022-09-14T02:47:46.663Z,18.37
2022-09-14T02:50:27.214Z,18.13
2022-09-14T02:53:08.072Z,18.19
2022-09-14T02:55:39.413Z,18.25
2022-09-14T02:58:13.984Z,18.26
2022-09-14T03:00:43.311Z,18.29
2022-09-14T03:03:12.263Z,18.15
2022-09-14T03:05:39.178Z,18.20
2022-09-14T03:08:06.479Z,18.24
2022-09-14T03:10:33.351Z,18.26
2022-09-14T03:13:00.523Z,18.28
2022-09-14T03:15:28.124Z,18.24
2022-09-14T03:17:54.800Z,18.24
2022-09-14T03:20:24.612Z,18.25
2022-09-14T03:22:51.539Z,18.29
2022-09-14T03:25:23.033Z,18.09
2022-09-14T03:27:51.016Z,18.15
2022-09-14T03:30:18.738Z,18.11
2022-09-14T03:32:45.776Z,18.09
2022-09-14T03:35:13.229Z,18.08
2022-09-14T03:37:41.540Z,18.05
2022-09-14T03:40:10.516Z,18.01
2022-09-14T03:42:37.273Z,18.12
2022-09-14T03:45:04.466Z,18.10
2022-09-14T03:47:31.305Z,18.19
2022-09-14T03:49:58.056Z,18.17
2022-09-14T03:52:24.760Z,18.18
2022-09-14T03:54:51.441Z,18.06
2022-09-14T03:57:18.196Z,18.04
2022-09-14T03:59:44.876Z,18.10
2022-09-14T04:02:11.651Z,17.89
2022-09-14T04:04:38.393Z,17.80
2022-09-14T04:07:05.085Z,17.87
2022-09-14T04:09:31.831Z,17.88
2022-09-14T04:11:58.526Z,17.89
2022-09-14T04:14:25.318Z,17.65
2022-09-14T04:16:51.998Z,17.57
2022-09-14T04:19:18.740Z,17.72
2022-09-14T04:21:45.817Z,17.58
2022-09-14T04:24:16.404Z,17.53
2022-09-14T04:26:44.557Z,17.57
2022-09-14T04:29:12.768Z,17.57
2022-09-14T04:31:39.472Z,17.53
2022-09-14T04:34:06.695Z,17.49
2022-09-14T04:36:33.799Z,17.48
2022-09-14T04:39:02.708Z,17.77
2022-09-14T04:41:30.734Z,17.72
2022-09-14T04:43:58.449Z,17.82
2022-09-14T04:46:31.284Z,17.88
2022-09-14T04:48:58.756Z,17.82
2022-09-14T04:51:27.889Z,17.70
2022-09-14T04:53:56.497Z,17.69
2022-09-14T04:56:24.217Z,17.70
2022-09-14T04:58:56.175Z,17.64
2022-09-14T05:01:25.683Z,17.71
2022-09-14T05:03:53.312Z,17.72
2022-09-14T05:06:26.298Z,17.51
2022-09-14T05:08:54.229Z,17.62
2022-09-14T05:11:25.424Z,17.68
2022-09-14T05:13:52.365Z,17.61
2022-09-14T05:16:21.669Z,17.61
2022-09-14T05:18:49.057Z,17.61
2022-09-14T05:21:17.914Z,17.60
2022-09-14T05:23:44.762Z,17.38
2022-09-14T05:26:12.029Z,17.45
2022-09-14T05:28:38.767Z,17.32
2022-09-14T05:31:07.710Z,17.25
2022-09-14T05:33:35.213Z,17.37
2022-09-14T05:36:03.718Z,17.42
2022-09-14T05:38:31.935Z,17.36
2022-09-14T05:40:58.546Z,17.48
2022-09-14T05:43:25.856Z,17.33
2022-09-14T05:45:52.572Z,17.48
2022-09-14T05:48:19.718Z,17.32
2022-09-14T05:50:47.347Z,17.18
2022-09-14T05:53:14.117Z,17.12
2022-09-14T05:55:40.800Z,17.31
2022-09-14T05:58:07.390Z,17.46
2022-09-14T06:00:34.079Z,17.50
2022-09-14T06:03:00.690Z,17.50
2022-09-14T06:05:28.219Z,17.63
2022-09-14T06:07:54.954Z,17.88
2022-09-14T06:10:22.081Z,17.88
2022-09-14T06:12:51.269Z,17.98
2022-09-14T06:15:24.551Z,18.04
2022-09-14T06:17:51.205Z,18.25
2022-09-14T06:20:18.812Z,18.31
2022-09-14T06:22:45.479Z,18.45
2022-09-14T06:25:12.181Z,18.70
2022-09-14T06:27:38.898Z,18.77
2022-09-14T06:30:06.143Z,19.28
2022-09-14T06:32:32.777Z,19.46
2022-09-14T06:34:59.565Z,19.60
2022-09-14T06:37:26.182Z,19.56
2022-09-14T06:39:53.029Z,20.03
2022-09-14T06:42:19.614Z,20.28
2022-09-14T06:44:47.553Z,20.03
2022-09-14T06:47:14.173Z,19.65
2022-09-14T06:49:40.843Z,20.15
2022-09-14T06:52:07.445Z,20.30
2022-09-14T06:54:34.210Z,20.45
2022-09-14T06:57:00.809Z,20.33
2022-09-14T06:59:27.453Z,20.17
2022-09-14T07:01:54.265Z,20.10
2022-09-14T07:04:21.549Z,19.73
2022-09-14T07:06:49.928Z,20.08
2022-09-14T07:09:18.812Z,20.93
2022-09-14T07:11:46.058Z,21.83
2022-09-14T07:14:12.745Z,21.59
2022-09-14T07:16:40.368Z,23.02
2022-09-14T07:19:11.580Z,22.77
2022-09-14T07:21:38.475Z,22.27
2022-09-14T07:24:05.729Z,22.37
2022-09-14T07:26:39.559Z,22.52
2022-09-14T07:29:10.036Z,24.29
2022-09-14T07:31:40.682Z,24.71
2022-09-14T07:34:08.034Z,23.98
2022-09-14T07:36:36.069Z,23.24
2022-09-14T07:39:05.515Z,24.46
2022-09-14T07:41:34.176Z,26.34
2022-09-14T07:44:02.645Z,28.04
2022-09-14T07:46:33.050Z,27.86
2022-09-14T07:49:01.697Z,27.36
2022-09-14T07:51:29.777Z,27.37
2022-09-14T07:53:57.142Z,27.74
2022-09-14T07:56:25.605Z,27.55
2022-09-14T07:59:11.381Z,28.07
2022-09-14T08:01:44.180Z,27.81
2022-09-14T08:04:11.097Z,28.85
2022-09-14T08:06:37.865Z,26.93
2022-09-14T08:09:10.903Z,25.19
2022-09-14T08:11:38.584Z,26.27
2022-09-14T08:14:09.919Z,27.30
2022-09-14T08:16:38.699Z,26.64
2022-09-14T08:19:10.716Z,28.76
2022-09-14T08:21:37.429Z,27.86
2022-09-14T08:24:04.736Z,27.65
2022-09-14T08:26:31.690Z,26.75
2022-09-14T08:29:00.460Z,26.63
2022-09-14T08:31:28.839Z,26.63
2022-09-14T08:34:03.689Z,25.47
2022-09-14T08:36:36.137Z,25.10
2022-09-14T08:39:03.783Z,26.30
2022-09-14T08:41:46.004Z,25.77
2022-09-14T08:44:37.904Z,24.68
2022-09-14T08:47:11.348Z,25.67
2022-09-14T08:50:12.314Z,25.41
2022-09-14T08:52:43.762Z,24.97
2022-09-14T08:55:16.196Z,24.75
2022-09-14T08:57:50.475Z,25.80
2022-09-14T09:00:31.226Z,26.71
2022-09-14T09:03:25.942Z,28.17
2022-09-14T09:06:15.665Z,28.27
2022-09-14T09:09:02.719Z,27.94
2022-09-14T09:11:40.970Z,28.48
2022-09-14T09:14:32.132Z,28.41
2022-09-14T09:17:03.229Z,28.06
2022-09-14T09:19:58.939Z,28.00
2022-09-14T09:22:29.702Z,28.99
2022-09-14T09:24:58.663Z,27.32
2022-09-14T09:27:27.730Z,26.98
2022-09-14T09:29:54.387Z,26.89
2022-09-14T09:32:24.748Z,27.54
2022-09-14T09:34:51.797Z,27.91
2022-09-14T09:37:22.492Z,27.73
2022-09-14T09:39:50.318Z,26.33
2022-09-14T09:42:25.458Z,26.51
2022-09-14T09:45:05.826Z,26.42
2022-09-14T09:47:37.578Z,26.54
2022-09-14T09:50:26.178Z,26.19
2022-09-14T09:53:03.269Z,26.25
2022-09-14T09:55:38.918Z,25.61
2022-09-14T09:58:35.944Z,25.31
2022-09-14T10:01:12.062Z,25.09
2022-09-14T10:03:40.933Z,25.19
2022-09-14T10:06:13.035Z,25.07
2022-09-14T10:08:45.379Z,24.97
2022-09-14T10:11:48.242Z,23.98
2022-09-14T10:14:33.754Z,23.81
2022-09-14T10:17:18.337Z,24.16
2022-09-14T10:19:52.198Z,24.28
2022-09-14T10:22:21.922Z,24.40
2022-09-14T10:25:01.332Z,24.40
2022-09-14T10:27:35.730Z,24.01
2022-09-14T10:30:07.109Z,24.66
2022-09-14T10:32:34.640Z,25.06
2022-09-14T10:35:01.413Z,25.54
2022-09-14T10:37:49.238Z,25.37
2022-09-14T10:40:19.705Z,24.42
2022-09-14T10:43:17.210Z,24.60
2022-09-14T10:46:02.135Z,24.95
2022-09-14T10:48:54.352Z,24.59
2022-09-14T10:51:47.201Z,25.23
2022-09-14T10:54:46.109Z,25.60
2022-09-14T10:57:34.974Z,25.95
2022-09-14T11:00:22.983Z,26.18
2022-09-14T11:02:55.811Z,25.69
2022-09-14T11:05:27.923Z,24.42
2022-09-14T11:08:09.669Z,24.45
2022-09-14T11:10:41.320Z,25.02
2022-09-14T11:13:37.482Z,24.50
2022-09-14T11:16:09.833Z,25.57
2022-09-14T11:19:01.232Z,25.72
2022-09-14T11:21:57.003Z,25.35
2022-09-14T11:24:51.113Z,24.57
2022-09-14T11:27:23.321Z,23.95
2022-09-14T11:29:55.586Z,24.35
2022-09-14T11:32:31.458Z,23.53
2022-09-14T11:35:12.935Z,24.01
2022-09-14T11:37:45.424Z,24.85
2022-09-14T11:40:36.780Z,25.62
2022-09-14T11:43:14.040Z,24.84
2022-09-14T11:46:08.498Z,24.89
2022-09-14T11:48:42.841Z,24.40
2022-09-14T11:51:17.278Z,24.15
2022-09-14T11:53:45.059Z,24.55
2022-09-14T11:56:23.757Z,24.31
2022-09-14T11:58:50.883Z,23.91
2022-09-14T12:01:47.499Z,23.04
2022-09-14T12:04:17.512Z,23.45
2022-09-14T12:06:48.006Z,24.36
2022-09-14T12:09:17.562Z,23.34
2022-09-14T12:11:45.566Z,23.35
2022-09-14T12:14:24.317Z,21.98
2022-09-14T12:17:35.778Z,22.12
2022-09-14T12:20:32.661Z,22.12
2022-09-14T12:23:07.639Z,22.77
2022-09-14T12:25:36.637Z,22.31
2022-09-14T12:28:03.321Z,22.13
2022-09-14T12:30:50.296Z,21.78
2022-09-14T12:33:32.162Z,22.88
2022-09-14T12:36:12.304Z,22.39
2022-09-14T12:38:41.832Z,21.78
2022-09-14T12:41:08.374Z,22.28
2022-09-14T12:43:35.136Z,21.96
2022-09-14T12:46:02.870Z,22.37
2022-09-14T12:48:47.554Z,23.21
2022-09-14T12:51:19.728Z,23.91
2022-09-14T12:53:51.821Z,23.96
2022-09-14T12:56:34.473Z,23.66
2022-09-14T12:59:29.943Z,23.64
2022-09-14T13:02:27.845Z,23.02
2022-09-14T13:04:58.061Z,23.17
2022-09-14T13:07:30.698Z,22.85
2022-09-14T13:09:58.929Z,22.65
2022-09-14T13:12:44.455Z,23.04
2022-09-14T13:15:43.986Z,23.00
2022-09-14T13:18:19.363Z,23.13
2022-09-14T13:20:51.374Z,23.26
2022-09-14T13:23:28.571Z,22.93
2022-09-14T13:25:56.015Z,22.35
2022-09-14T13:28:26.636Z,23.18
2022-09-14T13:30:58.827Z,23.56
2022-09-14T13:33:26.032Z,23.72
2022-09-14T13:35:58.010Z,23.55
2022-09-14T13:38:32.662Z,23.50
2022-09-14T13:41:18.014Z,22.76
2022-09-14T13:43:47.395Z,22.80
2022-09-14T13:46:18.358Z,23.33
2022-09-14T13:48:47.113Z,23.30
2022-09-14T13:51:14.833Z,23.29
2022-09-14T13:53:50.013Z,23.61
2022-09-14T13:56:33.701Z,23.18
2022-09-14T13:59:10.565Z,23.51
2022-09-14T14:01:44.007Z,22.86
2022-09-14T14:04:35.706Z,22.73
2022-09-14T14:07:23.119Z,22.27
2022-09-14T14:09:55.261Z,22.57
2022-09-14T14:12:26.422Z,22.48
2022-09-14T14:15:09.371Z,22.28
2022-09-14T14:17:38.576Z,23.11
2022-09-14T14:20:24.099Z,23.03
2022-09-14T14:22:58.193Z,21.68
2022-09-14T14:25:45.791Z,22.29
2022-09-14T14:28:25.891Z,22.07
2022-09-14T14:30:54.209Z,22.01
2022-09-14T14:33:22.560Z,22.27
2022-09-14T14:35:54.614Z,22.00
2022-09-14T14:38:23.701Z,20.70
2022-09-14T14:40:55.097Z,21.11
2022-09-14T14:43:25.244Z,20.21
2022-09-14T14:45:58.040Z,19.82
2022-09-14T14:48:26.181Z,19.50
2022-09-14T14:50:55.476Z,20.15
2022-09-14T14:53:25.742Z,20.12
2022-09-14T14:55:53.184Z,19.04
2022-09-14T14:58:21.680Z,18.64
2022-09-14T15:00:48.454Z,18.65
2022-09-14T15:03:16.002Z,18.65
2022-09-14T15:05:44.664Z,18.40
2022-09-14T15:08:12.773Z,18.42
2022-09-14T15:10:40.150Z,18.45
2022-09-14T15:13:07.738Z,18.51
2022-09-14T15:15:34.623Z,18.61
2022-09-14T15:18:01.393Z,18.77
2022-09-14T15:20:28.251Z,18.54
2022-09-14T15:22:55.067Z,18.05
2022-09-14T15:25:21.820Z,18.06
2022-09-14T15:27:48.549Z,18.40
2022-09-14T15:30:15.695Z,18.37
2022-09-14T15:32:42.846Z,18.99
2022-09-14T15:35:12.879Z,19.37
2022-09-14T15:37:39.694Z,19.71
2022-09-14T15:40:07.058Z,18.76
2022-09-14T15:42:33.911Z,18.63
2022-09-14T15:45:00.621Z,18.82
2022-09-14T15:47:27.224Z,19.38
2022-09-14T15:49:53.974Z,19.73
2022-09-14T15:52:20.735Z,19.92
2022-09-14T15:54:48.432Z,19.54
2022-09-14T15:57:15.555Z,19.90
2022-09-14T15:59:42.261Z,20.17
2022-09-14T16:02:12.092Z,20.25
2022-09-14T16:04:39.315Z,20.18
2022-09-14T16:07:09.759Z,20.26
2022-09-14T16:09:41.301Z,19.80
2022-09-14T16:12:10.005Z,19.81
2022-09-14T16:14:37.570Z,19.56
2022-09-14T16:17:05.546Z,19.65
2022-09-14T16:19:32.681Z,19.46
2022-09-14T16:21:59.649Z,19.56
2022-09-14T16:24:27.357Z,19.64
2022-09-14T16:26:54.146Z,19.75
2022-09-14T16:29:24.078Z,19.87
2022-09-14T16:31:51.295Z,19.87
2022-09-14T16:34:24.126Z,19.91
2022-09-14T16:36:51.693Z,19.93
2022-09-14T16:39:22.952Z,19.65
2022-09-14T16:41:49.949Z,19.73
2022-09-14T16:44:21.990Z,19.58
2022-09-14T16:46:49.575Z,19.55
2022-09-14T16:49:17.533Z,19.49
2022-09-14T16:51:44.455Z,19.35
2022-09-14T16:54:16.136Z,19.30
2022-09-14T16:56:43.487Z,19.42
2022-09-14T16:59:10.609Z,19.13
2022-09-14T17:01:40.094Z,18.93
2022-09-14T17:04:15.959Z,18.86
2022-09-14T17:06:44.827Z,19.07
2022-09-14T17:09:15.521Z,19.12
2022-09-14T17:11:43.101Z,18.67
2022-09-14T17:14:14.246Z,18.59
2022-09-14T17:16:40.892Z,18.30
2022-09-14T17:19:07.825Z,18.23
2022-09-14T17:21:37.934Z,18.29
2022-09-14T17:24:05.777Z,18.24
2022-09-14T17:26:32.938Z,18.31
2022-09-14T17:29:00.677Z,18.30
2022-09-14T17:31:30.515Z,18.25
2022-09-14T17:34:00.273Z,18.14
2022-09-14T17:36:27.381Z,18.09
2022-09-14T17:38:57.962Z,18.23
2022-09-14T17:41:28.039Z,18.28
2022-09-14T17:43:57.569Z,18.06
2022-09-14T17:46:25.515Z,18.16
2022-09-14T17:48:52.292Z,18.01
2022-09-14T17:51:22.071Z,17.98
2022-09-14T17:53:53.757Z,18.00
2022-09-14T17:56:23.622Z,17.87
2022-09-14T17:58:58.736Z,17.90
2022-09-14T18:01:25.447Z,17.96
2022-09-14T18:03:55.594Z,17.89
2022-09-14T18:06:25.616Z,17.99
2022-09-14T18:08:57.582Z,17.92
2022-09-14T18:11:24.556Z,17.86
2022-09-14T18:13:51.580Z,17.85
2022-09-14T18:16:20.755Z,17.84
2022-09-14T18:18:47.740Z,17.84
2022-09-14T18:21:16.776Z,17.78
2022-09-14T18:23:43.873Z,17.77
2022-09-14T18:26:10.639Z,17.73
2022-09-14T18:28:37.464Z,17.75
2022-09-14T18:31:07.118Z,17.72
2022-09-14T18:33:34.605Z,17.82
2022-09-14T18:36:01.808Z,17.75
2022-09-14T18:38:30.003Z,17.86
2022-09-14T18:41:06.861Z,17.85
2022-09-14T18:43:34.036Z,17.68
2022-09-14T18:46:04.618Z,17.54
2022-09-14T18:48:31.445Z,17.45
2022-09-14T18:51:02.734Z,17.44
2022-09-14T18:53:29.441Z,17.49
2022-09-14T18:56:04.390Z,17.58
2022-09-14T18:58:35.381Z,17.51
2022-09-14T19:01:03.273Z,17.63
2022-09-14T19:03:31.103Z,17.63
2022-09-14T19:05:58.834Z,17.65
2022-09-14T19:08:25.616Z,17.66
2022-09-14T19:10:52.411Z,17.66
2022-09-14T19:13:19.027Z,17.49
2022-09-14T19:15:45.800Z,17.58
2022-09-14T19:18:12.693Z,17.53
2022-09-14T19:21:04.825Z,17.49
2022-09-14T19:23:27.071Z,17.47
2022-09-14T19:25:53.700Z,17.47
2022-09-14T19:28:20.345Z,17.41
2022-09-14T19:30:48.731Z,17.35
2022-09-14T19:33:15.483Z,17.26
2022-09-14T19:35:42.249Z,17.26
2022-09-14T19:38:08.890Z,17.20
2022-09-14T19:40:35.624Z,17.14
2022-09-14T19:43:02.392Z,17.17
2022-09-14T19:45:29.362Z,17.19
2022-09-14T19:47:55.990Z,17.25
2022-09-14T19:50:22.649Z,17.22
2022-09-14T19:52:49.361Z,17.19
2022-09-14T19:55:16.185Z,17.13
2022-09-14T19:57:42.767Z,16.85
2022-09-14T20:00:16.285Z,16.91
2022-09-14T20:02:46.026Z,16.92
2022-09-14T20:05:13.229Z,16.96
2022-09-14T20:07:39.933Z,16.86
2022-09-14T20:10:07.257Z,16.93
2022-09-14T20:12:34.046Z,16.96
2022-09-14T20:15:00.705Z,16.94
2022-09-14T20:17:27.454Z,16.86
2022-09-14T20:19:54.209Z,16.78
2022-09-14T20:22:20.849Z,16.86
2022-09-14T20:24:47.555Z,16.81
2022-09-14T20:27:14.152Z,16.84
2022-09-14T20:29:40.758Z,16.85
2022-09-14T20:32:07.378Z,16.90
2022-09-14T20:34:34.526Z,16.85
2022-09-14T20:37:01.254Z,16.91
2022-09-14T20:39:28.179Z,16.88
2022-09-14T20:41:54.869Z,16.83
2022-09-14T20:44:24.637Z,16.88
2022-09-14T20:46:51.845Z,16.78
2022-09-14T20:49:21.037Z,16.57
2022-09-14T20:51:48.210Z,16.56
2022-09-14T20:54:17.015Z,16.24
2022-09-14T20:56:44.803Z,16.48
2022-09-14T20:59:14.454Z,16.67
2022-09-14T21:01:43.286Z,16.42
2022-09-14T21:04:16.483Z,16.49
2022-09-14T21:06:46.352Z,16.66
2022-09-14T21:09:14.884Z,16.58
2022-09-14T21:11:42.153Z,16.53
2022-09-14T21:14:09.011Z,16.55
2022-09-14T21:16:38.418Z,16.55
2022-09-14T21:19:08.850Z,16.53
2022-09-14T21:21:35.979Z,16.60
2022-09-14T21:24:04.656Z,16.64
2022-09-14T21:26:34.514Z,16.72
2022-09-14T21:29:04.841Z,16.75
2022-09-14T21:31:32.172Z,16.70
2022-09-14T21:34:01.651Z,16.73
2022-09-14T21:36:34.918Z,16.61
2022-09-14T21:39:08.517Z,16.55
2022-09-14T21:41:39.751Z,16.50
2022-09-14T21:44:06.563Z,16.54
2022-09-14T21:46:33.708Z,16.44
2022-09-14T21:49:00.641Z,16.36
2022-09-14T21:51:30.482Z,16.37
2022-09-14T21:54:02.345Z,16.35
2022-09-14T21:56:30.899Z,16.43
2022-09-14T21:58:59.981Z,16.53
2022-09-14T22:01:27.836Z,16.47
2022-09-14T22:03:55.675Z,16.34
2022-09-14T22:06:24.709Z,16.39
2022-09-14T22:08:52.434Z,16.36
2022-09-14T22:11:29.052Z,16.32
2022-09-14T22:14:01.247Z,16.23
2022-09-14T22:16:29.795Z,16.23
2022-09-14T22:18:59.339Z,16.25
2022-09-14T22:21:27.941Z,16.25
2022-09-14T22:23:56.868Z,16.26
2022-09-14T22:26:25.162Z,16.21
2022-09-14T22:28:53.612Z,16.22
2022-09-14T22:31:22.599Z,16.13
2022-09-14T22:33:50.531Z,16.11
2022-09-14T22:36:17.739Z,16.12
2022-09-14T22:38:45.659Z,16.06
2022-09-14T22:41:15.152Z,16.05
2022-09-14T22:43:41.778Z,16.09
2022-09-14T22:46:09.170Z,16.08
2022-09-14T22:48:36.483Z,16.10
2022-09-14T22:51:05.034Z,16.07
2022-09-14T22:53:32.282Z,15.98
2022-09-14T22:55:59.316Z,16.08
2022-09-14T22:58:27.845Z,16.11
2022-09-14T23:00:54.520Z,16.03
2022-09-14T23:03:21.245Z,16.03
2022-09-14T23:05:53.294Z,16.00
2022-09-14T23:08:19.956Z,16.01
2022-09-14T23:10:47.764Z,16.01
2022-09-14T23:13:15.461Z,15.98
2022-09-14T23:15:42.434Z,16.00
2022-09-14T23:18:09.690Z,15.98
2022-09-14T23:20:44.015Z,16.00
2022-09-14T23:23:11.697Z,16.01
2022-09-14T23:25:39.996Z,16.04
2022-09-14T23:28:09.507Z,16.00
2022-09-14T23:30:36.134Z,15.94
2022-09-14T23:33:02.844Z,15.93
2022-09-14T23:35:29.874Z,15.91
2022-09-14T23:37:56.746Z,15.92
2022-09-14T23:40:23.555Z,15.92
2022-09-14T23:42:50.411Z,15.94
2022-09-14T23:45:17.133Z,15.88
2022-09-14T23:47:45.965Z,15.88
2022-09-14T23:50:12.638Z,15.91
2022-09-14T23:52:40.243Z,15.96
2022-09-14T23:55:07.617Z,16.01
2022-09-14T23:57:34.256Z,16.04
